Steuben, Maine
Current Conditions -  °F | °C
As of 1:55 PM on Thursday 23 Oct 2014 (Local Time) from KBHB Reporting Station
Overcast Overcast  
Wind Chill: 11°   Ceiling: 800
Heat Index: 11°   Visibility: 4mi
Dew Point: 11°   Wind: 16mph
Humidity: 100%   Direction: 50°NE
Pressure: 29.8"   Gusts: 31mph
Location:  44.51°N, 67.97°W
Report Text: KBHB 231755Z AUTO 05014G27KT 4SM OVC008 11/11 A2980 RMK AO1 P0012 60055 10110 20110 57020
Loading
Personal Weather Stations






























Interactive Weather Map
Tropical Storm Tracking
New forecast layout! Learn more

10-Day Weather Forecast

Advertisements
Track Severe Weather on mobile